createdAt,value
2023-03-22T00:01:53.547Z,96530.94
2023-03-22T00:04:24.368Z,96534.03
2023-03-22T00:06:54.843Z,96534.66
2023-03-22T00:09:26.201Z,96534.15
2023-03-22T00:11:57.044Z,96537.26
2023-03-22T00:14:27.532Z,96540.47
2023-03-22T00:16:57.820Z,96543.45
2023-03-22T00:19:28.868Z,96540.15
2023-03-22T00:22:00.477Z,96540.52
2023-03-22T00:24:31.469Z,96534.48
2023-03-22T00:27:02.136Z,96530.00
2023-03-22T00:29:32.521Z,96530.41
2023-03-22T00:32:03.922Z,96535.20
2023-03-22T00:34:34.818Z,96536.27
2023-03-22T00:37:05.666Z,96534.02
2023-03-22T00:39:35.969Z,96532.05
2023-03-22T00:42:07.032Z,96535.21
2023-03-22T00:44:37.539Z,96541.07
2023-03-22T00:47:07.945Z,96540.88
2023-03-22T00:49:38.103Z,96542.84
2023-03-22T00:52:08.257Z,96540.73
2023-03-22T00:54:39.267Z,96543.45
2023-03-22T00:57:10.041Z,96541.98
2023-03-22T00:59:40.424Z,96539.55
2023-03-22T01:02:13.088Z,96535.95
2023-03-22T01:04:46.105Z,96534.11
2023-03-22T01:07:21.205Z,96534.23
2023-03-22T01:09:52.315Z,96539.70
2023-03-22T01:12:22.692Z,96535.92
2023-03-22T01:14:53.043Z,96532.88
2023-03-22T01:17:23.277Z,96531.47
2023-03-22T01:19:54.187Z,96530.43
2023-03-22T01:22:24.461Z,96528.27
2023-03-22T01:24:55.217Z,96526.31
2023-03-22T01:27:25.386Z,96525.70
2023-03-22T01:29:55.919Z,96527.73
2023-03-22T01:32:26.304Z,96530.38
2023-03-22T01:34:56.655Z,96528.80
2023-03-22T01:37:27.530Z,96529.59
2023-03-22T01:39:58.092Z,96529.86
2023-03-22T01:42:28.758Z,96527.56
2023-03-22T01:45:45.636Z,96526.89
2023-03-22T01:48:24.132Z,96530.80
2023-03-22T01:50:59.781Z,96524.81
2023-03-22T01:53:31.661Z,96528.13
2023-03-22T01:56:02.731Z,96525.44
2023-03-22T01:58:34.047Z,96527.90
2023-03-22T02:01:04.900Z,96524.27
2023-03-22T02:03:49.348Z,96528.01
2023-03-22T02:06:20.272Z,96526.45
2023-03-22T02:08:52.627Z,96530.88
2023-03-22T02:11:29.310Z,96529.01
2023-03-22T02:14:12.004Z,96533.77
2023-03-22T02:16:50.997Z,96535.14
2023-03-22T02:19:42.030Z,96535.84
2023-03-22T02:23:05.723Z,96539.13
2023-03-22T02:26:03.674Z,96543.86
2023-03-22T02:28:41.461Z,96541.95
2023-03-22T02:31:23.034Z,96540.86
2023-03-22T02:34:24.284Z,96543.77
2023-03-22T02:37:07.958Z,96545.92
2023-03-22T02:39:42.059Z,96542.84
2023-03-22T02:42:22.497Z,96540.67
2023-03-22T02:44:59.576Z,96536.23
2023-03-22T02:47:38.932Z,96537.27
2023-03-22T02:50:14.609Z,96532.04
2023-03-22T02:52:49.540Z,96532.70
2023-03-22T02:55:23.064Z,96536.63
2023-03-22T02:57:57.349Z,96530.47
2023-03-22T03:00:28.253Z,96535.98
2023-03-22T03:03:00.919Z,96543.27
2023-03-22T03:05:32.830Z,96543.02
2023-03-22T03:08:04.078Z,96541.23
2023-03-22T03:10:35.250Z,96539.38
2023-03-22T03:13:06.168Z,96541.03
2023-03-22T03:15:37.181Z,96542.05
2023-03-22T03:18:23.937Z,96538.98
2023-03-22T03:21:02.624Z,96542.95
2023-03-22T03:23:40.453Z,96541.81
2023-03-22T03:26:14.955Z,96543.65
2023-03-22T03:28:50.412Z,96537.02
2023-03-22T03:31:27.263Z,96535.89
2023-03-22T03:34:03.459Z,96530.09
2023-03-22T03:36:37.684Z,96532.89
2023-03-22T03:39:10.909Z,96538.20
2023-03-22T03:41:42.025Z,96541.73
2023-03-22T03:44:13.125Z,96539.80
2023-03-22T03:46:43.746Z,96545.94
2023-03-22T03:49:15.214Z,96548.05
2023-03-22T03:51:51.846Z,96553.05
2023-03-22T03:54:23.621Z,96548.83
2023-03-22T03:56:54.243Z,96551.57
2023-03-22T03:59:24.975Z,96549.84
2023-03-22T04:01:55.552Z,96557.60
2023-03-22T04:04:27.856Z,96557.80
2023-03-22T04:07:00.113Z,96552.86
2023-03-22T04:09:33.128Z,96556.98
2023-03-22T04:12:03.541Z,96560.04
2023-03-22T04:14:34.458Z,96561.63
2023-03-22T04:17:04.903Z,96563.23
2023-03-22T04:19:35.335Z,96561.61
2023-03-22T04:22:05.483Z,96560.71
2023-03-22T04:24:37.888Z,96562.78
2023-03-22T04:27:09.137Z,96563.20
2023-03-22T04:29:40.339Z,96566.61
2023-03-22T04:32:11.039Z,96567.73
2023-03-22T04:34:42.176Z,96563.15
2023-03-22T04:37:12.886Z,96564.95
2023-03-22T04:39:43.203Z,96561.30
2023-03-22T04:42:14.017Z,96559.63
2023-03-22T04:44:44.557Z,96565.34
2023-03-22T04:47:14.960Z,96567.11
2023-03-22T04:49:45.387Z,96569.60
2023-03-22T04:52:15.544Z,96569.12
2023-03-22T04:54:45.869Z,96564.94
2023-03-22T04:57:17.490Z,96565.13
2023-03-22T04:59:47.742Z,96565.41
2023-03-22T05:02:18.018Z,96564.67
2023-03-22T05:04:48.757Z,96565.78
2023-03-22T05:07:19.042Z,96566.20
2023-03-22T05:09:50.011Z,96567.69
2023-03-22T05:12:20.789Z,96570.29
2023-03-22T05:14:51.143Z,96570.83
2023-03-22T05:17:21.519Z,96568.31
2023-03-22T05:19:51.954Z,96570.20
2023-03-22T05:22:22.536Z,96568.50
2023-03-22T05:24:53.559Z,96570.95
2023-03-22T05:27:31.021Z,96568.21
2023-03-22T05:30:01.676Z,96568.31
2023-03-22T05:32:32.133Z,96566.15
2023-03-22T05:35:05.034Z,96566.78
2023-03-22T05:37:36.245Z,96568.36
2023-03-22T05:40:09.714Z,96566.80
2023-03-22T05:42:40.083Z,96568.39
2023-03-22T05:45:12.394Z,96568.12
2023-03-22T05:47:42.951Z,96574.17
2023-03-22T05:50:15.223Z,96569.04
2023-03-22T05:52:46.150Z,96572.27
2023-03-22T05:55:17.904Z,96575.21
2023-03-22T05:57:51.263Z,96576.72
2023-03-22T06:00:23.652Z,96573.16
2023-03-22T06:02:56.234Z,96571.03
2023-03-22T06:05:26.756Z,96572.27
2023-03-22T06:07:57.966Z,96572.09
2023-03-22T06:10:28.480Z,96573.59
2023-03-22T06:12:58.815Z,96578.02
2023-03-22T06:15:29.246Z,96579.02
2023-03-22T06:17:59.788Z,96575.41
2023-03-22T06:20:30.032Z,96575.05
2023-03-22T06:23:00.538Z,96574.52
2023-03-22T06:25:31.631Z,96573.70
2023-03-22T06:28:02.318Z,96574.45
2023-03-22T06:30:32.755Z,96577.65
2023-03-22T06:33:05.160Z,96573.89
2023-03-22T06:35:35.730Z,96575.05
2023-03-22T06:38:06.129Z,96572.84
2023-03-22T06:40:36.357Z,96568.30
2023-03-22T06:43:07.426Z,96567.45
2023-03-22T06:45:37.926Z,96568.33
2023-03-22T06:48:09.058Z,96564.79
2023-03-22T06:50:43.959Z,96565.42
2023-03-22T06:53:14.514Z,96562.30
2023-03-22T06:55:44.871Z,96562.05
2023-03-22T06:58:15.151Z,96559.76
2023-03-22T07:00:45.724Z,96560.48
2023-03-22T07:03:16.392Z,96554.06
2023-03-22T07:05:47.690Z,96553.80
2023-03-22T07:08:17.960Z,96550.30
2023-03-22T07:10:51.734Z,96552.55
2023-03-22T07:13:21.881Z,96549.27
2023-03-22T07:15:54.107Z,96546.05
2023-03-22T07:18:24.532Z,96543.03
2023-03-22T07:20:54.900Z,96547.55
2023-03-22T07:23:25.754Z,96544.83
2023-03-22T07:25:56.228Z,96540.52
2023-03-22T07:28:26.891Z,96538.83
2023-03-22T07:31:03.085Z,96533.19
2023-03-22T07:33:33.375Z,96535.93
2023-03-22T07:36:04.304Z,96531.33
2023-03-22T07:38:35.013Z,96528.31
2023-03-22T07:41:05.924Z,96522.55
2023-03-22T07:43:50.881Z,96519.95
2023-03-22T07:46:23.657Z,96520.96
2023-03-22T07:48:53.937Z,96518.33
2023-03-22T07:51:24.530Z,96517.80
2023-03-22T07:53:54.808Z,96511.56
2023-03-22T07:56:25.800Z,96513.34
2023-03-22T07:58:56.074Z,96504.23
2023-03-22T08:01:26.776Z,96506.86
2023-03-22T08:03:56.904Z,96501.78
2023-03-22T08:06:28.130Z,96500.81
2023-03-22T08:08:58.371Z,96494.77
2023-03-22T08:11:28.645Z,96488.23
2023-03-22T08:13:59.112Z,96489.65
2023-03-22T08:16:29.712Z,96488.79
2023-03-22T08:19:00.204Z,96490.25
2023-03-22T08:21:30.637Z,96491.65
2023-03-22T08:24:00.746Z,96488.48
2023-03-22T08:26:32.018Z,96486.54
2023-03-22T08:29:02.891Z,96486.65
2023-03-22T08:31:33.316Z,96481.54
2023-03-22T08:34:03.721Z,96475.02
2023-03-22T08:36:33.996Z,96473.00
2023-03-22T08:39:04.655Z,96470.77
2023-03-22T08:41:35.263Z,96468.70
2023-03-22T08:44:05.683Z,96468.77
2023-03-22T08:46:36.273Z,96465.70
2023-03-22T08:49:06.616Z,96464.83
2023-03-22T08:51:36.997Z,96461.55
2023-03-22T08:54:08.304Z,96457.94
2023-03-22T08:56:38.896Z,96455.59
2023-03-22T08:59:10.244Z,96449.46
2023-03-22T09:01:40.622Z,96448.80
2023-03-22T09:04:11.587Z,96447.77
2023-03-22T09:06:45.183Z,96442.36
2023-03-22T09:09:15.831Z,96437.51
2023-03-22T09:11:46.172Z,96435.27
2023-03-22T09:14:16.714Z,96436.10
2023-03-22T09:16:47.759Z,96436.70
2023-03-22T09:19:18.257Z,96428.50
2023-03-22T09:21:49.800Z,96423.02
2023-03-22T09:24:20.309Z,96417.68
2023-03-22T09:26:51.159Z,96414.91
2023-03-22T09:29:21.576Z,96413.31
2023-03-22T09:31:52.100Z,96414.73
2023-03-22T09:34:22.389Z,96410.64
2023-03-22T09:36:53.425Z,96403.42
2023-03-22T09:39:23.968Z,96400.90
2023-03-22T09:41:56.762Z,96397.02
2023-03-22T09:44:29.963Z,96404.88
2023-03-22T09:47:02.213Z,96403.77
2023-03-22T09:49:52.286Z,96397.80
2023-03-22T09:52:23.686Z,96394.79
2023-03-22T09:54:55.151Z,96392.09
2023-03-22T09:57:30.100Z,96388.46
2023-03-22T10:00:11.435Z,96387.67
2023-03-22T10:02:49.088Z,96386.33
2023-03-22T10:05:27.592Z,96382.39
2023-03-22T10:08:32.828Z,96374.11
2023-03-22T10:11:03.073Z,96368.40
2023-03-22T10:13:37.661Z,96366.43
2023-03-22T10:16:12.974Z,96361.29
2023-03-22T10:18:46.947Z,96359.21
2023-03-22T10:21:18.106Z,96360.21
2023-03-22T10:23:50.414Z,96350.10
2023-03-22T10:26:23.775Z,96348.77
2023-03-22T10:29:03.886Z,96346.83
2023-03-22T10:31:36.175Z,96348.16
2023-03-22T10:34:08.581Z,96346.48
2023-03-22T10:36:40.431Z,96342.64
2023-03-22T10:39:16.466Z,96336.10
2023-03-22T10:41:46.863Z,96337.70
2023-03-22T10:44:18.889Z,96332.69
2023-03-22T10:46:51.233Z,96331.35
2023-03-22T10:49:28.044Z,96336.00
2023-03-22T10:52:01.490Z,96335.59
2023-03-22T10:54:32.756Z,96334.29
2023-03-22T10:57:03.275Z,96328.14
2023-03-22T10:59:48.984Z,96326.31
2023-03-22T11:02:21.465Z,96329.67
2023-03-22T11:04:53.714Z,96326.55
2023-03-22T11:07:35.859Z,96326.76
2023-03-22T11:10:32.405Z,96327.19
2023-03-22T11:13:21.365Z,96321.48
2023-03-22T11:15:58.934Z,96319.75
2023-03-22T11:18:32.212Z,96319.39
2023-03-22T11:21:05.429Z,96319.92
2023-03-22T11:23:38.225Z,96319.66
2023-03-22T11:26:11.536Z,96314.94
2023-03-22T11:28:48.558Z,96316.00
2023-03-22T11:31:19.889Z,96312.33
2023-03-22T11:33:58.203Z,96315.16
2023-03-22T11:36:29.421Z,96310.75
2023-03-22T11:39:02.397Z,96308.48
2023-03-22T11:41:36.933Z,96306.11
2023-03-22T11:44:08.558Z,96308.16
2023-03-22T11:46:39.782Z,96307.38
2023-03-22T11:49:13.968Z,96306.95
2023-03-22T11:51:44.673Z,96311.34
2023-03-22T11:54:20.598Z,96313.20
2023-03-22T11:56:51.104Z,96316.80
2023-03-22T11:59:25.915Z,96316.28
2023-03-22T12:02:01.805Z,96313.18
2023-03-22T12:04:36.761Z,96315.52
2023-03-22T12:07:10.545Z,96312.49
2023-03-22T12:09:44.387Z,96313.02
2023-03-22T12:12:18.948Z,96311.69
2023-03-22T12:14:53.023Z,96310.33
2023-03-22T12:17:30.768Z,96306.17
2023-03-22T12:20:08.255Z,96301.77
2023-03-22T12:22:41.991Z,96298.53
2023-03-22T12:25:18.664Z,96298.41
2023-03-22T12:27:50.738Z,96296.64
2023-03-22T12:30:23.306Z,96295.86
2023-03-22T12:32:58.653Z,96299.95
2023-03-22T12:35:31.379Z,96299.00
2023-03-22T12:38:12.555Z,96300.05
2023-03-22T12:40:45.660Z,96296.85
2023-03-22T12:43:19.762Z,96296.30
2023-03-22T12:45:53.763Z,96299.83
2023-03-22T12:48:32.400Z,96295.39
2023-03-22T12:51:07.041Z,96296.18
2023-03-22T12:53:43.329Z,96295.09
2023-03-22T12:56:16.392Z,96295.09
2023-03-22T12:58:51.497Z,96294.05
2023-03-22T13:01:33.433Z,96296.97
2023-03-22T13:04:51.434Z,96290.52
2023-03-22T13:07:40.754Z,96292.43
2023-03-22T13:10:47.123Z,96297.22
2023-03-22T13:13:33.593Z,96291.91
2023-03-22T13:16:16.364Z,96297.40
2023-03-22T13:19:01.724Z,96304.85
2023-03-22T13:21:35.540Z,96301.80
2023-03-22T13:24:23.748Z,96305.97
2023-03-22T13:26:56.593Z,96304.89
2023-03-22T13:29:36.794Z,96311.69
2023-03-22T13:32:28.410Z,96315.52
2023-03-22T13:34:59.221Z,96313.79
2023-03-22T13:37:35.434Z,96313.75
2023-03-22T13:40:14.708Z,96318.33
2023-03-22T13:42:45.147Z,96320.96
2023-03-22T13:45:31.789Z,96321.04
2023-03-22T13:48:07.849Z,96324.01
2023-03-22T13:50:39.720Z,96324.96
2023-03-22T13:53:16.956Z,96331.29
2023-03-22T13:56:01.283Z,96333.46
2023-03-22T13:58:38.368Z,96336.45
2023-03-22T14:01:13.442Z,96339.75
2023-03-22T14:03:45.795Z,96343.69
2023-03-22T14:06:21.501Z,96344.61
2023-03-22T14:08:55.364Z,96344.93
2023-03-22T14:11:29.828Z,96348.16
2023-03-22T14:14:04.327Z,96351.59
2023-03-22T14:16:39.259Z,96357.11
2023-03-22T14:19:15.084Z,96361.47
